KBYG/BYG METAR and TAF weather

Enter ICAO airport designator
Station Type Date Time Source
KBYG METAR 2021/10/22 17:53 UTC NOAA

KBYG 221753Z AUTO 16016KT 10SM CLR 16/02 A3000 RMK AO2 SLP131 T01560017 10156 20039 58018


Station Type Date Time Source
KBYG Decoded METAR 2021/10/22 17:53 UTC NOAA

BUFFALO JOHNSON COUNTY AIRPORT , WY, United States (KBYG) 44-23N 106-43W 1497M
Oct 22, 2021 - 01:53 PM EDT / 2021.10.22 1753 UTC
Wind: from the SSE (160 degrees) at 18 MPH (16 KT):0
Visibility: 10 mile(s):0
Sky conditions: clear
Temperature: 60.1 F (15.6 C)
Dew Point: 35.1 F (1.7 C)
Relative Humidity: 38%
Pressure (altimeter): 30 in. Hg (1015 hPa)
Pressure tendency: 0.05 inches (1.8 hPa) lower than three hours ago
ob: KBYG 221753Z AUTO 16016KT 10SM CLR 16/02 A3000 RMK AO2 SLP131 T01560017 10156 20039 58018
cycle: 18

Station Type Date Time Source
KBYG TAF UTC NOAA

Error!

Example: see airport list